Greenock, United Kingdom
Current Conditions -  °F | °C
As of 3:20 AM on Sunday 21 Dec 2014 (Local Time) from EGPF Reporting Station
Overcast Overcast  
Wind Chill: 38°   Ceiling: 1900
Heat Index: 46°   Visibility: 6mi
Dew Point: 43°   Wind: 23mph
Humidity: 87%   Direction: 230°SW
Pressure: 30.03"   Gusts: 35mph
Location:  55.95°N, 4.76°W
Report Text: EGPF 210320Z AUTO 23020G30KT 9999 OVC019 08/06 Q1017
Loading
Personal Weather Stations






























Interactive Weather Map New forecast layout! Learn more

10-Day Weather Forecast

Advertisements
Track Severe Weather on mobile